全部
F.D. Roosevelt Airport (Sint Eustatius) EUX 天气
|
Sint Eustatius (EUX / TNCE)
晴天
微风 |
|
27 °C |
There is no TAF data available at EUX. Showing TAF data for TKPK (21 mi SE).
SKB终端机场天气预报(EUX无数据)
| Here is the undecoded forecast: 2026/05/03 18:00 TKPK 031800Z 0318/04128 09011KT 9999 FEW024 |
EUX近期METAR历史数据
| Date | Time (AST) | Flight Rules | Wind Dir. | Speed | Type | Height AGL (ft) | Visibility | Temp (°C) | Temp (°F) | Dew Point (°C) | Dew Point (°F) | Rel. Humid. | Pressure | Density Altitude | Remarks |
|---|---|---|---|---|---|---|---|---|---|---|---|---|---|---|---|
| gap in available data | |||||||||||||||
| 03-五月 | 17:55 | n/a | 90° | 10 kt | Missing | 27° | 80° | 22° | 71° | 74% | 1015 mb | 1,516 ft | |||
| 03-五月 | 16:55 | n/a | 100° | 11 kt | Missing | 28° | 82° | 22° | 71° | 70% | 1015 mb | 1,636 ft | |||
| 03-五月 | 15:55 | n/a | 90° | 12 kt | Missing | 29° | 84° | 23° | 73° | 70% | 1015 mb | 1,756 ft | |||
| 03-五月 | 14:55 | n/a | 100° | 14 kt | Missing | 29° | 84° | 23° | 73° | 70% | 1015 mb | 1,756 ft | |||
| 03-五月 | 13:55 | n/a | 90° | 13 kt | Missing | 29° | 84° | 24° | 75° | 74% | 1016 mb | 1,727 ft | |||
| 03-五月 | 12:55 | n/a | 90° | 12 kt | Missing | 29° | 84° | 23° | 73° | 70% | 1017 mb | 1,697 ft | |||
| 03-五月 | 11:55 | n/a | 100° | 13 kt | Missing | 29° | 84° | 23° | 73° | 70% | 1017 mb | 1,697 ft | |||
| 03-五月 | 10:55 | n/a | 90° | 13 kt | Missing | 29° | 84° | 23° | 73° | 70% | 1017 mb | 1,697 ft | |||
| 03-五月 | 09:55 | n/a | 100° | 13 kt | Missing | 29° | 84° | 23° | 73° | 70% | 1018 mb | 1,667 ft | |||
| 03-五月 | 08:55 | n/a | 90° | 12 kt | Missing | 28° | 82° | 23° | 73° | 74% | 1017 mb | 1,577 ft | |||
| 03-五月 | 07:55 | n/a | 90° | 13 kt | Missing | 28° | 82° | 22° | 71° | 70% | 1017 mb | 1,577 ft | |||
| 03-五月 | 06:55 | n/a | 90° | 9 kt | Missing | 27° | 80° | 22° | 71° | 74% | 1017 mb | 1,457 ft | |||
| 03-五月 | 05:55 | n/a | 90° | 9 kt | Missing | 25° | 77° | 22° | 71° | 83% | 1017 mb | 1,217 ft | |||
| 03-五月 | 04:55 | n/a | 90° | 8 kt | Missing | 25° | 77° | 21° | 69° | 79% | 1016 mb | 1,247 ft | |||
| 03-五月 | 03:55 | n/a | 90° | 8 kt | Missing | 26° | 78° | 21° | 69° | 74% | 1016 mb | 1,367 ft | |||
| 03-五月 | 02:55 | n/a | 90° | 9 kt | Missing | 26° | 78° | 21° | 69° | 74% | 1016 mb | 1,367 ft | |||
| 03-五月 | 01:55 | n/a | 90° | 9 kt | Missing | 26° | 78° | 21° | 69° | 74% | 1016 mb | 1,367 ft | |||
| 03-五月 | 00:55 | n/a | 90° | 11 kt | Missing | 26° | 78° | 21° | 69° | 74% | 1016 mb | 1,367 ft | |||
| 02-五月 | 23:55 | n/a | 100° | 9 kt | Missing | 26° | 78° | 22° | 71° | 79% | 1017 mb | 1,337 ft | |||
| 02-五月 | 22:55 | n/a | 100° | 9 kt | Missing | 26° | 78° | 22° | 71° | 79% | 1017 mb | 1,337 ft | |||
| 02-五月 | 21:55 | n/a | 90° | 10 kt | Missing | 26° | 78° | 23° | 73° | 84% | 1017 mb | 1,337 ft | |||
| 02-五月 | 20:55 | n/a | 100° | 10 kt | Missing | 26° | 78° | 22° | 71° | 79% | 1017 mb | 1,337 ft | |||
| 02-五月 | 19:55 | n/a | 100° | 8 kt | Missing | 26° | 78° | 22° | 71° | 79% | 1016 mb | 1,367 ft | |||
| 02-五月 | 18:55 | n/a | 100° | 7 kt | Missing | 26° | 78° | 22° | 71° | 79% | 1015 mb | 1,396 ft | |||
登录
| 您的浏览器不支持. 升级您的浏览器 |
